createdAt,value
2022-12-13T00:01:28.074Z,23.57
2022-12-13T00:04:02.974Z,23.00
2022-12-13T00:06:30.740Z,24.33
2022-12-13T00:08:58.086Z,21.60
2022-12-13T00:11:24.598Z,22.30
2022-12-13T00:13:51.266Z,22.47
2022-12-13T00:16:22.235Z,26.40
2022-12-13T00:18:56.822Z,24.73
2022-12-13T00:21:26.138Z,25.83
2022-12-13T00:23:52.732Z,27.57
2022-12-13T00:26:21.630Z,25.13
2022-12-13T00:28:49.440Z,25.90
2022-12-13T00:34:04.803Z,25.97
2022-12-13T00:36:31.233Z,27.27
2022-12-13T00:39:00.532Z,28.83
2022-12-13T00:41:32.082Z,32.20
2022-12-13T00:44:01.189Z,27.13
2022-12-13T00:46:29.745Z,28.70
2022-12-13T00:48:58.888Z,31.80
2022-12-13T00:51:27.450Z,25.97
2022-12-13T00:53:56.481Z,28.33
2022-12-13T00:56:27.962Z,33.87
2022-12-13T00:58:55.431Z,35.13
2022-12-13T01:01:26.015Z,28.50
2022-12-13T01:03:57.359Z,29.63
2022-12-13T01:06:34.629Z,25.00
2022-12-13T01:09:02.924Z,31.33
2022-12-13T01:11:29.574Z,32.77
2022-12-13T01:13:56.082Z,29.43
2022-12-13T01:16:28.421Z,30.80
2022-12-13T01:18:57.468Z,33.37
2022-12-13T01:21:24.704Z,29.20
2022-12-13T01:23:51.251Z,25.83
2022-12-13T01:26:21.972Z,32.13
2022-12-13T01:28:49.056Z,28.20
2022-12-13T01:31:18.800Z,34.70
2022-12-13T01:33:45.621Z,32.60
2022-12-13T01:36:15.306Z,30.30
2022-12-13T01:38:42.110Z,31.30
2022-12-13T01:41:18.156Z,33.23
2022-12-13T01:43:44.926Z,35.07
2022-12-13T01:46:12.591Z,36.23
2022-12-13T01:48:44.339Z,33.27
2022-12-13T01:51:14.985Z,32.13
2022-12-13T01:53:43.997Z,36.07
2022-12-13T01:56:16.149Z,28.97
2022-12-13T01:58:42.922Z,37.90
2022-12-13T02:01:10.214Z,34.03
2022-12-13T02:03:37.507Z,39.23
2022-12-13T02:06:14.275Z,34.80
2022-12-13T02:08:43.785Z,33.23
2022-12-13T02:11:11.218Z,34.90
2022-12-13T02:13:37.921Z,31.67
2022-12-13T02:16:29.044Z,37.53
2022-12-13T02:18:58.422Z,31.53
2022-12-13T02:21:34.609Z,38.93
2022-12-13T02:24:08.639Z,35.13
2022-12-13T02:26:47.702Z,33.17
2022-12-13T02:29:48.093Z,38.43
2022-12-13T02:32:30.057Z,38.73
2022-12-13T02:34:59.451Z,34.63
2022-12-13T02:37:52.843Z,33.27
2022-12-13T02:40:34.635Z,32.33
2022-12-13T02:43:07.063Z,34.33
2022-12-13T02:45:55.423Z,38.77
2022-12-13T02:48:27.701Z,37.57
2022-12-13T02:50:55.185Z,38.30
2022-12-13T02:53:23.291Z,38.63
2022-12-13T02:55:49.835Z,44.53
2022-12-13T02:58:22.659Z,36.40
2022-12-13T03:01:02.721Z,36.73
2022-12-13T03:03:34.939Z,31.83
2022-12-13T03:06:33.598Z,34.40
2022-12-13T03:09:20.457Z,34.90
2022-12-13T03:12:17.684Z,30.37
2022-12-13T03:15:09.127Z,37.17
2022-12-13T03:17:44.010Z,39.40
2022-12-13T03:20:22.883Z,36.47
2022-12-13T03:22:51.376Z,35.70
2022-12-13T03:25:31.306Z,35.27
2022-12-13T03:28:01.210Z,32.00
2022-12-13T03:30:31.360Z,31.43
2022-12-13T03:32:57.820Z,35.93
2022-12-13T03:35:25.112Z,33.70
2022-12-13T03:38:01.945Z,31.80
2022-12-13T03:40:30.309Z,32.70
2022-12-13T03:42:57.082Z,31.53
2022-12-13T03:45:23.931Z,30.83
2022-12-13T03:47:50.395Z,32.30
2022-12-13T03:50:26.278Z,33.70
2022-12-13T03:53:01.048Z,28.53
2022-12-13T03:55:28.035Z,31.50
2022-12-13T03:57:54.435Z,28.13
2022-12-13T04:00:21.500Z,27.37
2022-12-13T04:02:47.952Z,31.27
2022-12-13T04:05:14.824Z,31.73
2022-12-13T04:07:47.986Z,32.13
2022-12-13T04:10:26.251Z,35.73
2022-12-13T04:13:12.839Z,31.03
2022-12-13T04:15:39.839Z,32.67
2022-12-13T04:18:06.796Z,35.20
2022-12-13T04:20:33.214Z,42.30
2022-12-13T04:22:59.776Z,44.07
2022-12-13T04:25:26.699Z,45.57
2022-12-13T04:27:53.112Z,38.37
2022-12-13T04:30:19.632Z,38.50
2022-12-13T04:32:46.033Z,35.50
2022-12-13T04:35:12.953Z,35.87
2022-12-13T04:37:39.683Z,37.80
2022-12-13T04:40:10.487Z,37.73
2022-12-13T04:42:36.886Z,33.77
2022-12-13T04:45:03.894Z,33.37
2022-12-13T04:47:30.338Z,32.80
2022-12-13T04:49:56.880Z,37.10
2022-12-13T04:52:23.316Z,35.53
2022-12-13T04:54:55.593Z,32.27
2022-12-13T04:57:22.833Z,34.60
2022-12-13T04:59:49.284Z,30.37
2022-12-13T05:02:23.778Z,34.83
2022-12-13T05:04:53.573Z,29.27
2022-12-13T05:07:21.058Z,30.93
2022-12-13T05:09:47.492Z,33.37
2022-12-13T05:12:22.639Z,29.63
2022-12-13T05:14:50.467Z,31.00
2022-12-13T05:17:16.854Z,34.77
2022-12-13T05:19:43.358Z,30.93
2022-12-13T05:22:19.712Z,33.57
2022-12-13T05:24:48.015Z,33.40
2022-12-13T05:27:24.484Z,29.67
2022-12-13T05:30:02.884Z,28.37
2022-12-13T05:32:44.165Z,28.03
2022-12-13T05:35:22.290Z,30.30
2022-12-13T05:37:53.175Z,31.97
2022-12-13T05:40:21.610Z,29.60
2022-12-13T05:42:47.988Z,26.53
2022-12-13T05:45:16.007Z,31.57
2022-12-13T05:47:42.599Z,28.87
2022-12-13T05:50:09.281Z,29.93
2022-12-13T05:52:35.641Z,27.80
2022-12-13T05:55:02.288Z,27.63
2022-12-13T05:57:28.807Z,23.43
2022-12-13T05:59:55.630Z,27.57
2022-12-13T06:02:25.054Z,26.47
2022-12-13T06:04:52.513Z,23.67
2022-12-13T06:07:20.995Z,29.20
2022-12-13T06:09:47.523Z,28.03
2022-12-13T06:12:31.411Z,23.53
2022-12-13T06:17:39.349Z,24.03
2022-12-13T06:20:24.190Z,26.87
2022-12-13T06:22:53.651Z,32.70
2022-12-13T06:25:30.760Z,26.07
2022-12-13T06:28:01.235Z,26.87
2022-12-13T06:30:29.143Z,24.70
2022-12-13T06:32:56.098Z,28.17
2022-12-13T06:35:27.843Z,27.73
2022-12-13T06:38:01.365Z,23.90
2022-12-13T06:40:30.271Z,29.90
2022-12-13T06:42:57.296Z,25.07
2022-12-13T06:45:23.840Z,27.80
2022-12-13T06:47:50.276Z,26.53
2022-12-13T06:50:16.901Z,27.27
2022-12-13T06:52:46.360Z,30.00
2022-12-13T06:55:12.989Z,25.30
2022-12-13T06:57:40.759Z,27.30
2022-12-13T07:00:09.460Z,24.90
2022-12-13T07:02:37.885Z,26.27
2022-12-13T07:05:04.742Z,27.40
2022-12-13T07:07:31.131Z,23.67
2022-12-13T07:09:57.611Z,26.73
2022-12-13T07:12:24.306Z,30.40
2022-12-13T07:14:50.762Z,26.33
2022-12-13T07:17:33.511Z,23.13
2022-12-13T07:20:02.758Z,26.40
2022-12-13T07:22:29.218Z,29.47
2022-12-13T07:25:01.422Z,34.67
2022-12-13T07:27:27.790Z,29.53
2022-12-13T07:29:54.150Z,27.73
2022-12-13T07:32:20.520Z,28.07
2022-12-13T07:34:46.875Z,33.47
2022-12-13T07:37:29.546Z,36.67
2022-12-13T07:40:02.869Z,31.23
2022-12-13T07:42:30.593Z,31.53
2022-12-13T07:44:57.021Z,30.30
2022-12-13T07:47:23.485Z,28.43
2022-12-13T07:49:49.956Z,34.47
2022-12-13T07:52:16.441Z,31.53
2022-12-13T07:54:43.093Z,33.80
2022-12-13T07:57:09.624Z,29.63
2022-12-13T07:59:36.594Z,27.77
2022-12-13T08:02:03.267Z,27.23
2022-12-13T08:04:29.771Z,29.60
2022-12-13T08:07:07.119Z,24.67
2022-12-13T08:09:33.480Z,25.70
2022-12-13T08:12:01.398Z,27.43
2022-12-13T08:14:27.957Z,29.03
2022-12-13T08:16:54.392Z,31.17
2022-12-13T08:19:20.893Z,33.00
2022-12-13T08:21:56.789Z,30.03
2022-12-13T08:24:26.016Z,28.47
2022-12-13T08:26:52.627Z,25.53
2022-12-13T08:29:32.133Z,28.40
2022-12-13T08:32:06.093Z,31.97
2022-12-13T08:34:32.602Z,32.60
2022-12-13T08:37:01.898Z,29.43
2022-12-13T08:39:30.201Z,27.77
2022-12-13T08:42:00.412Z,26.47
2022-12-13T08:44:42.321Z,23.57
2022-12-13T08:47:09.076Z,27.33
2022-12-13T08:49:35.455Z,25.37
2022-12-13T08:52:01.825Z,28.47
2022-12-13T08:54:31.734Z,35.37
2022-12-13T08:56:58.351Z,35.37
2022-12-13T08:59:26.012Z,36.13
2022-12-13T09:01:53.984Z,39.20
2022-12-13T09:04:31.686Z,32.63
2022-12-13T09:07:01.193Z,38.80
2022-12-13T09:09:29.082Z,39.27
2022-12-13T09:11:59.648Z,35.73
2022-12-13T09:14:34.105Z,40.20
2022-12-13T09:17:02.896Z,39.67
2022-12-13T09:19:37.094Z,38.73
2022-12-13T09:22:04.940Z,34.67
2022-12-13T09:24:36.675Z,31.20
2022-12-13T09:27:09.573Z,41.30
2022-12-13T09:29:37.237Z,38.33
2022-12-13T09:32:03.963Z,36.40
2022-12-13T09:34:32.883Z,34.77
2022-12-13T09:37:01.636Z,35.30
2022-12-13T09:39:29.038Z,34.50
2022-12-13T09:42:01.418Z,32.67
2022-12-13T09:44:42.458Z,34.20
2022-12-13T09:47:23.841Z,35.93
2022-12-13T09:49:52.139Z,39.97
2022-12-13T09:52:23.327Z,29.77
2022-12-13T09:54:56.055Z,38.50
2022-12-13T09:57:40.877Z,31.77
2022-12-13T10:00:14.278Z,26.50
2022-12-13T10:02:57.087Z,31.70
2022-12-13T10:05:37.221Z,29.17
2022-12-13T10:08:24.191Z,30.20
2022-12-13T10:10:53.024Z,31.00
2022-12-13T10:13:45.772Z,29.93
2022-12-13T10:16:23.387Z,30.10
2022-12-13T10:18:51.001Z,28.17
2022-12-13T10:21:22.878Z,30.33
2022-12-13T10:26:37.816Z,27.70
2022-12-13T10:29:06.529Z,28.63
2022-12-13T10:31:45.391Z,28.93
2022-12-13T10:34:21.617Z,27.13
2022-12-13T10:36:48.387Z,37.30
2022-12-13T10:39:18.403Z,35.10
2022-12-13T10:41:47.456Z,32.03
2022-12-13T10:44:13.810Z,30.93
2022-12-13T10:46:42.797Z,29.03
2022-12-13T10:50:01.765Z,29.47
2022-12-13T10:52:34.344Z,27.53
2022-12-13T10:55:26.581Z,27.07
2022-12-13T10:57:56.581Z,30.80
2022-12-13T11:00:45.510Z,27.03
2022-12-13T11:03:32.494Z,26.93
2022-12-13T11:06:04.966Z,28.50
2022-12-13T11:08:31.406Z,29.90
2022-12-13T11:11:05.995Z,28.10
2022-12-13T11:13:44.768Z,27.70
2022-12-13T11:16:21.799Z,28.90
2022-12-13T11:18:54.197Z,29.07
2022-12-13T11:21:29.766Z,26.63
2022-12-13T11:24:02.001Z,30.50
2022-12-13T11:26:31.023Z,27.00
2022-12-13T11:29:18.991Z,28.40
2022-12-13T11:32:07.889Z,29.13
2022-12-13T11:35:02.694Z,27.57
2022-12-13T11:37:44.114Z,24.97
2022-12-13T11:40:16.108Z,28.73
2022-12-13T11:42:51.750Z,28.73
2022-12-13T11:45:27.705Z,27.73
2022-12-13T11:48:09.453Z,26.00
2022-12-13T11:50:37.058Z,26.53
2022-12-13T11:53:06.455Z,27.20
2022-12-13T11:55:40.346Z,25.57
2022-12-13T12:01:21.347Z,28.20
2022-12-13T12:03:57.666Z,24.83
2022-12-13T12:06:29.491Z,28.53
2022-12-13T12:09:10.710Z,26.90
2022-12-13T12:11:53.981Z,25.40
2022-12-13T12:14:29.475Z,26.17
2022-12-13T12:16:58.928Z,23.40
2022-12-13T12:19:33.895Z,26.73
2022-12-13T12:22:30.924Z,23.67
2022-12-13T12:25:13.857Z,27.80
2022-12-13T12:27:48.192Z,23.07
2022-12-13T12:30:24.400Z,21.90
2022-12-13T12:32:50.965Z,26.97
2022-12-13T12:35:45.673Z,27.53
2022-12-13T12:39:01.547Z,22.00
2022-12-13T12:41:45.565Z,25.83
2022-12-13T12:44:33.954Z,22.80
2022-12-13T12:47:57.563Z,24.43
2022-12-13T12:50:34.422Z,26.20
2022-12-13T12:53:22.581Z,21.80
2022-12-13T12:56:11.358Z,21.20
2022-12-13T12:58:55.187Z,21.07
2022-12-13T13:01:37.692Z,18.30
2022-12-13T13:04:14.091Z,16.47
2022-12-13T13:07:23.400Z,18.43
2022-12-13T13:09:54.858Z,16.87
2022-12-13T13:12:29.536Z,14.43
2022-12-13T13:14:57.545Z,17.27
2022-12-13T13:17:23.886Z,20.67
2022-12-13T13:20:12.134Z,20.23
2022-12-13T13:22:44.450Z,19.63
2022-12-13T13:25:25.979Z,19.20
2022-12-13T13:28:01.728Z,19.00
2022-12-13T13:30:28.591Z,17.80
2022-12-13T13:32:57.957Z,22.17
2022-12-13T13:35:33.427Z,21.00
2022-12-13T13:38:05.056Z,20.97
2022-12-13T13:40:34.368Z,21.80
2022-12-13T13:43:06.628Z,17.50
2022-12-13T13:45:51.424Z,18.40
2022-12-13T13:48:55.628Z,19.40
2022-12-13T13:51:54.867Z,17.60
2022-12-13T13:54:46.374Z,19.33
2022-12-13T13:58:00.372Z,17.93
2022-12-13T14:00:28.642Z,17.07
2022-12-13T14:03:33.770Z,20.63
2022-12-13T14:06:06.709Z,15.10
2022-12-13T14:09:01.571Z,16.70
2022-12-13T14:12:06.176Z,15.23
2022-12-13T14:15:01.380Z,17.27
2022-12-13T14:18:03.293Z,17.00
2022-12-13T14:20:45.201Z,15.60
2022-12-13T14:23:48.402Z,16.10
2022-12-13T14:26:28.906Z,14.93
2022-12-13T14:29:00.931Z,15.77
2022-12-13T14:31:37.244Z,14.23
2022-12-13T14:34:07.396Z,14.60
2022-12-13T14:36:36.601Z,14.07
2022-12-13T14:39:24.504Z,13.67
2022-12-13T14:41:56.688Z,16.50
2022-12-13T14:44:29.546Z,20.80
2022-12-13T14:47:01.807Z,14.83
2022-12-13T14:49:31.014Z,14.30
2022-12-13T14:52:27.199Z,13.97
2022-12-13T14:54:58.064Z,18.50
2022-12-13T14:57:28.547Z,15.37
2022-12-13T14:59:57.201Z,17.47
2022-12-13T15:02:31.321Z,19.13
2022-12-13T15:05:01.232Z,20.80
2022-12-13T15:07:32.747Z,20.50
2022-12-13T15:10:02.576Z,19.00
2022-12-13T15:12:29.922Z,22.10
2022-12-13T15:15:04.031Z,18.53
2022-12-13T15:17:34.314Z,17.03
2022-12-13T15:20:01.305Z,17.20
2022-12-13T15:22:29.420Z,18.23
2022-12-13T15:24:57.877Z,19.70
2022-12-13T15:27:25.167Z,20.40
2022-12-13T15:29:54.151Z,19.53
2022-12-13T15:32:24.861Z,17.80
2022-12-13T15:34:51.894Z,15.07
2022-12-13T15:37:45.954Z,18.43
2022-12-13T15:40:14.826Z,17.40
2022-12-13T15:42:47.036Z,17.93
2022-12-13T15:45:22.732Z,13.97
2022-12-13T15:47:51.163Z,17.20
2022-12-13T15:50:36.379Z,18.27
2022-12-13T15:53:19.392Z,18.37
2022-12-13T15:55:46.670Z,16.53
2022-12-13T15:58:26.312Z,16.87
2022-12-13T16:00:53.192Z,18.30
2022-12-13T16:03:24.725Z,14.63
2022-12-13T16:05:54.833Z,20.40
2022-12-13T16:08:28.943Z,16.43
2022-12-13T16:10:56.835Z,16.00
2022-12-13T16:13:34.181Z,15.17
2022-12-13T16:16:09.186Z,17.23
2022-12-13T16:18:51.646Z,16.17
2022-12-13T16:21:18.135Z,18.10
2022-12-13T16:23:48.314Z,15.60
2022-12-13T16:26:25.952Z,17.23
2022-12-13T16:28:54.013Z,15.80
2022-12-13T16:31:23.454Z,20.40
2022-12-13T16:33:49.916Z,19.20
2022-12-13T16:36:16.359Z,22.23
2022-12-13T16:38:42.782Z,16.97
2022-12-13T16:41:10.022Z,18.37
2022-12-13T16:44:01.005Z,18.00
2022-12-13T16:47:17.115Z,17.50
2022-12-13T16:49:22.210Z,18.83
2022-12-13T16:51:49.232Z,21.10
2022-12-13T16:54:17.093Z,20.30
2022-12-13T16:56:43.583Z,20.83
2022-12-13T16:59:22.254Z,18.37
2022-12-13T17:01:50.254Z,17.07
2022-12-13T17:04:21.122Z,14.80
2022-12-13T17:06:50.169Z,19.43
2022-12-13T17:09:17.006Z,18.87
2022-12-13T17:11:43.491Z,17.93
2022-12-13T17:14:10.227Z,14.60
2022-12-13T17:16:36.825Z,15.73
2022-12-13T17:19:03.593Z,15.53
2022-12-13T17:21:30.346Z,20.60
2022-12-13T17:23:58.391Z,15.00
2022-12-13T17:26:25.609Z,16.30
2022-12-13T17:28:52.454Z,16.70
2022-12-13T17:31:19.516Z,16.60
2022-12-13T17:33:46.343Z,14.57
2022-12-13T17:36:14.722Z,14.80
2022-12-13T17:38:45.802Z,13.73
2022-12-13T17:41:16.246Z,15.23
2022-12-13T17:43:43.875Z,14.33
2022-12-13T17:46:13.947Z,16.20
2022-12-13T17:48:41.633Z,13.80
2022-12-13T17:51:12.275Z,12.50
2022-12-13T17:53:40.039Z,14.47
2022-12-13T17:56:08.415Z,16.47
2022-12-13T17:58:35.543Z,16.80
2022-12-13T18:01:22.030Z,14.40
2022-12-13T18:03:51.334Z,14.80
2022-12-13T18:06:18.113Z,14.20
2022-12-13T18:08:45.556Z,13.40
2022-12-13T18:11:32.480Z,14.30
2022-12-13T18:14:01.452Z,15.63
2022-12-13T18:16:35.769Z,15.27
2022-12-13T18:19:03.918Z,15.90
2022-12-13T18:21:30.379Z,15.80
2022-12-13T18:23:58.863Z,16.40
2022-12-13T18:26:25.338Z,12.90
2022-12-13T18:28:52.376Z,16.13
2022-12-13T18:31:22.226Z,18.40
2022-12-13T18:33:50.693Z,14.30
2022-12-13T18:36:18.461Z,15.30
2022-12-13T18:38:45.306Z,16.47
2022-12-13T18:41:17.217Z,17.50
2022-12-13T18:43:44.794Z,16.43
2022-12-13T18:46:13.321Z,18.83
2022-12-13T18:48:40.462Z,15.07
2022-12-13T18:51:09.588Z,21.00
2022-12-13T18:53:37.233Z,12.30
2022-12-13T18:56:06.109Z,17.53
2022-12-13T18:58:33.441Z,18.70
2022-12-13T19:01:00.194Z,18.00
2022-12-13T19:03:27.294Z,16.80
2022-12-13T19:05:56.525Z,17.70
2022-12-13T19:08:26.110Z,18.07
2022-12-13T19:10:55.781Z,16.17
2022-12-13T19:13:25.073Z,18.47
2022-12-13T19:15:53.956Z,17.10
2022-12-13T19:18:21.014Z,16.23
2022-12-13T19:20:49.235Z,21.87
2022-12-13T19:23:16.337Z,14.53
2022-12-13T19:25:42.872Z,20.50
2022-12-13T19:28:11.048Z,14.90
2022-12-13T19:30:38.585Z,20.50
2022-12-13T19:33:06.789Z,19.23
2022-12-13T19:35:33.738Z,22.83
2022-12-13T19:38:00.278Z,21.27
2022-12-13T19:40:26.943Z,25.10
2022-12-13T19:42:53.338Z,21.47
2022-12-13T19:45:19.840Z,21.07
2022-12-13T19:47:48.879Z,18.93
2022-12-13T19:50:15.442Z,22.93
2022-12-13T19:52:41.841Z,23.80
2022-12-13T19:55:08.600Z,18.90
2022-12-13T19:57:35.622Z,17.13
2022-12-13T20:00:02.069Z,17.90
2022-12-13T20:02:28.644Z,16.63
2022-12-13T20:04:55.119Z,16.43
2022-12-13T20:07:21.663Z,19.40
2022-12-13T20:09:48.099Z,16.80
2022-12-13T20:12:14.519Z,15.33
2022-12-13T20:14:40.972Z,16.43
2022-12-13T20:17:08.131Z,21.60
2022-12-13T20:19:34.564Z,15.13
2022-12-13T20:22:01.033Z,13.57
2022-12-13T20:24:27.411Z,17.10
2022-12-13T20:26:53.879Z,16.13
2022-12-13T20:29:21.087Z,16.80
2022-12-13T20:31:51.264Z,15.43
2022-12-13T20:34:19.601Z,17.43
2022-12-13T20:36:46.031Z,17.47
2022-12-13T20:39:13.484Z,15.43
2022-12-13T20:41:40.328Z,15.33
2022-12-13T20:44:08.509Z,14.07
2022-12-13T20:46:35.312Z,16.80
2022-12-13T20:49:03.881Z,16.30
2022-12-13T20:51:32.123Z,15.97
2022-12-13T20:53:58.850Z,14.30
2022-12-13T20:56:32.604Z,14.20
2022-12-13T20:58:59.014Z,15.40
2022-12-13T21:01:28.211Z,15.07
2022-12-13T21:03:56.170Z,17.40
2022-12-13T21:06:23.044Z,15.23
2022-12-13T21:08:52.125Z,14.07
2022-12-13T21:11:26.455Z,15.97
2022-12-13T21:14:08.255Z,15.67
2022-12-13T21:16:45.185Z,13.57
2022-12-13T21:19:17.797Z,16.03
2022-12-13T21:21:44.248Z,12.90
2022-12-13T21:24:14.538Z,12.10
2022-12-13T21:26:41.788Z,14.23
2022-12-13T21:29:10.909Z,16.60
2022-12-13T21:31:38.101Z,15.90
2022-12-13T21:34:06.127Z,12.27
2022-12-13T21:36:35.206Z,13.77
2022-12-13T21:39:05.297Z,17.07
2022-12-13T21:41:31.838Z,13.47
2022-12-13T21:44:00.376Z,16.53
2022-12-13T21:46:47.824Z,14.97
2022-12-13T21:49:15.547Z,16.73
2022-12-13T21:51:47.428Z,11.60
2022-12-13T21:54:14.672Z,15.93
2022-12-13T21:56:59.759Z,13.83
2022-12-13T21:59:27.693Z,14.10
2022-12-13T22:02:12.006Z,12.77
2022-12-13T22:04:47.287Z,15.50
2022-12-13T22:07:19.255Z,13.60
2022-12-13T22:09:46.518Z,15.07
2022-12-13T22:12:23.150Z,17.07
2022-12-13T22:14:50.227Z,13.20
2022-12-13T22:17:18.110Z,14.20
2022-12-13T22:19:48.566Z,12.40
2022-12-13T22:22:16.399Z,15.60
2022-12-13T22:24:42.805Z,12.20
2022-12-13T22:27:09.237Z,13.50
2022-12-13T22:29:35.772Z,12.70
2022-12-13T22:32:02.644Z,13.07
2022-12-13T22:34:29.211Z,12.80
2022-12-13T22:36:55.689Z,11.93
2022-12-13T22:39:23.652Z,12.63
2022-12-13T22:41:51.325Z,12.43
2022-12-13T22:44:19.391Z,11.17
2022-12-13T22:46:46.267Z,12.43
2022-12-13T22:49:13.219Z,14.70
2022-12-13T22:51:39.851Z,15.33
2022-12-13T22:54:06.755Z,14.60
2022-12-13T22:56:33.488Z,12.17
2022-12-13T22:59:01.927Z,14.20
2022-12-13T23:01:30.643Z,15.67
2022-12-13T23:03:57.432Z,15.40
2022-12-13T23:06:28.987Z,11.90
2022-12-13T23:08:58.004Z,12.87
2022-12-13T23:11:43.642Z,13.30
2022-12-13T23:14:13.803Z,15.60
2022-12-13T23:16:40.975Z,15.23
2022-12-13T23:19:40.461Z,12.40
2022-12-13T23:21:56.764Z,14.83
2022-12-13T23:24:23.243Z,16.33
2022-12-13T23:26:49.747Z,14.23
2022-12-13T23:29:16.193Z,15.97
2022-12-13T23:31:48.874Z,17.57
2022-12-13T23:34:15.842Z,17.60
2022-12-13T23:36:42.508Z,14.00
2022-12-13T23:39:09.292Z,15.13
2022-12-13T23:41:36.138Z,18.07
2022-12-13T23:44:04.346Z,12.50
2022-12-13T23:46:36.085Z,17.50
2022-12-13T23:49:05.303Z,13.40
2022-12-13T23:51:33.031Z,11.57
2022-12-13T23:53:59.600Z,11.13
2022-12-13T23:56:26.330Z,12.20
2022-12-13T23:58:52.773Z,12.70
